Latest Coastal Weather Observations for Warruwi

IDD60701

Issued at 9:21 pm CST Tuesday 28 March 2017 (issued every 10 minutes, with the page automatically refreshed every 10 minutes)

About coastal observations | Map of coastal stations | Coastal observations for NT | Marine services | Other Formats
Station Details ID: 014401 Name: WARRUWI AIRPORT Lat: -11.65 Lon: 133.38 Height: 19.2 m
Data from the previous 72 hours. | See also: Recent months at Warruwi
Date/Time
CST
Temp
°C
Wind Pressure Rain since
9am
mm
Weather Cloud Vis
km
Sea
Height
m
Swell
Dir  Spd
kts
Gust
kts
hPa Trend Height
m
Period
s
Dir
28/09:00pm 29.9 W 7 10 1007.7 - 0.0 - - - - - - -
28/08:30pm 30.1 W 7 11 1007.8 - 0.0 - - - - - - -
28/08:00pm 30.4 WSW 7 11 1007.6 - 0.0 - - - - - - -
28/07:30pm 30.6 W 7 10 1006.9 - 0.0 - - - - - - -
28/07:00pm 30.8 WSW 5 9 1006.6 - 0.0 - - - - - - -
28/06:30pm 31.1 W 6 9 1005.8 - 0.0 - - - - - - -
28/06:00pm 31.7 W 6 9 1005.7 - 0.0 - - - - - - -
28/05:30pm 32.5 W 8 12 1005.4 - 0.0 - - - - - - -
28/05:00pm 32.3 W 10 13 1005.5 - 0.0 - - - - - - -
28/04:30pm 32.5 W 11 14 1005.6 - 0.0 - - - - - - -
28/04:00pm 33.1 W 10 15 1005.9 - 0.0 - - - - - - -
28/03:30pm 33.0 W 11 15 1006.2 - 0.0 - - - - - - -
28/03:00pm 32.6 W 12 16 1006.4 - 0.0 - - - - - - -
28/02:30pm 33.2 W 13 16 1006.7 - 0.0 - - - - - - -
28/02:00pm 33.2 W 12 17 1007.0 - 0.0 - - - - - - -
28/01:30pm 32.7 W 12 16 1007.4 - 0.0 - - - - - - -
28/01:00pm 32.7 W 12 16 1007.8 - 0.0 - - - - - - -
28/12:30pm 32.5 W 12 17 1008.4 - 0.0 - - - - - - -
28/12:00pm 32.3 W 12 16 1008.9 - 0.0 - - - - - - -
28/11:30am 32.0 W 12 17 1009.2 - 0.0 - - - - - - -
28/11:00am 31.6 W 11 16 1009.6 - 0.0 - - - - - - -
28/10:30am 30.4 W 9 14 1010.0 - 0.0 - - - - - - -
28/10:00am 30.4 W 10 15 1010.2 - 0.0 - - - - - - -
28/09:30am 29.6 W 9 13 1010.3 - 0.0 - - - - - - -
28/09:00am 29.2 WNW 8 12 1010.4 - 6.8 - - - - - - -
28/08:30am 29.3 W 9 12 1010.3 - 6.8 - - - - - - -
28/08:00am 28.8 W 7 11 1010.1 - 6.8 - - - - - - -
28/07:30am 28.2 W 10 14 1009.5 - 6.8 - - - - - - -
28/07:00am 27.7 WSW 8 11 1009.2 - 6.8 - - - - - - -
28/06:30am 28.3 WNW 8 11 1009.2 - 6.8 - - - - - - -
28/06:00am 28.3 WNW 7 11 1009.1 - 6.8 - - - - - - -
28/05:30am 28.3 WNW 8 13 1008.7 - 6.8 - - - - - - -
28/05:00am 28.2 WNW 5 9 1009.3 - 6.8 - - - - - - -
28/04:30am 28.1 WNW 8 12 1008.3 - 6.8 - - - - - - -
28/04:00am 28.1 WNW 8 13 1008.1 - 6.8 - - - - - - -
28/03:30am 28.1 WNW 7 10 1008.4 - 6.8 - - - - - - -
28/03:00am 28.1 WNW 6 11 1008.4 - 6.8 - - - - - - -
28/02:30am 28.0 WNW 6 11 1008.6 - 6.8 - - - - - - -
28/02:00am 28.0 WNW 6 10 1008.7 - 6.8 - - - - - - -
28/01:30am 27.7 WNW 4 7 1009.0 - 6.8 - - - - - - -
28/01:00am 27.7 WNW 3 5 1009.2 - 6.8 - - - - - - -
28/12:30am 27.9 W 8 10 1009.3 - 6.8 - - - - - - -
28/12:00am 28.0 WNW 6 10 1009.4 - 6.8 - - - - - - -
 
Date/Time
CST
Temp
°C
Wind Pressure Rain since
9am
mm
Weather Cloud Vis
km
Sea
Height
m
Swell
Dir  Spd
kts
Gust
kts
hPa Trend Height
m
Period
s
Dir
27/11:30pm 27.3 WNW 2 4 1009.5 - 6.8 - - - - - - -
27/11:00pm 27.7 S 1 2 1010.2 - 6.8 - - - - - - -
27/10:30pm 28.0 WSW 5 8 1010.3 - 6.8 - - - - - - -
27/10:00pm 27.9 WSW 4 7 1010.8 - 6.8 - - - - - - -
27/09:30pm 28.5 WNW 8 12 1009.9 - 6.6 - - - - - - -
27/09:00pm 28.6 WSW 5 6 1009.8 - 6.6 - - - - - - -
27/08:30pm 28.7 SSW 2 3 1009.8 - 6.6 - - - - - - -
27/08:00pm 28.7 W 3 5 1009.1 - 6.6 - - - - - - -
27/07:30pm 28.4 NW 2 4 1008.7 - 6.6 - - - - - - -
27/07:00pm 29.1 WNW 6 8 1008.3 - 6.6 - - - - - - -
27/06:30pm 29.2 NW 6 10 1008.1 - 6.6 - - - - - - -
27/06:00pm 29.2 NW 8 15 1007.8 - 6.6 Recent precip. - - - - - -
27/05:30pm 28.4 NW 5 8 1007.8 - 6.6 - - - - - - -
27/05:00pm 28.3 NW 6 11 1007.4 - 6.4 - - - - - - -
27/04:30pm 29.1 NNW 5 10 1007.6 - 6.0 - - - - - - -
27/04:00pm 29.6 NNW 5 8 1007.9 - 6.0 - - - - - - -
27/03:30pm 29.3 NW 3 5 1007.7 - 6.0 - - - - - - -
27/03:00pm 28.4 NW 2 5 1008.2 - 5.8 Recent precip. - - - - - -
27/02:30pm 28.8 WNW 6 11 1008.7 - 2.6 - - - - - - -
27/02:00pm 31.7 NW 8 16 1008.6 - 0.0 - - - - - - -
27/01:30pm 32.1 NNW 7 14 1008.8 - 0.0 - - - - - - -
27/01:00pm 32.7 WNW 6 9 1008.9 - 0.0 - - - - - - -
27/12:30pm 31.6 WNW 6 10 1009.4 - 0.0 - - - - - - -
27/12:00pm 31.4 WNW 5 9 1010.0 - 0.0 - - - - - - -
27/11:30am 31.9 WNW 5 9 1010.5 - 0.0 - - - - - - -
27/11:00am 31.0 WNW 7 10 1011.0 - 0.0 - - - - - - -
27/10:30am 30.3 WNW 8 12 1011.2 - 0.0 - - - - - - -
27/10:00am 30.1 W 5 8 1011.5 - 0.0 - - - - - - -
27/09:30am 29.6 W 6 9 1011.7 - 0.0 - - - - - - -
27/09:00am 29.8 WNW 5 7 1011.6 - 0.6 - - - - - - -
27/08:30am 29.2 W 6 9 1011.4 - 0.6 - - - - - - -
27/08:00am 28.7 W 5 7 1011.1 - 0.6 - - - - - - -
27/07:30am 27.9 W 4 6 1010.9 - 0.6 - - - - - - -
27/07:00am 27.4 WSW 5 8 1010.6 - 0.6 - - - - - - -
27/06:30am 27.4 W 6 8 1010.5 - 0.6 - - - - - - -
27/06:00am 27.6 W 6 8 1010.4 - 0.6 - - - - - - -
27/05:30am 27.8 WNW 6 9 1010.2 - 0.6 - - - - - - -
27/05:00am 27.9 WNW 7 12 1009.9 - 0.6 - - - - - - -
27/04:30am 27.7 WNW 7 11 1009.9 - 0.6 - - - - - - -
27/04:00am 27.4 W 4 8 1009.8 - 0.6 - - - - - - -
27/03:30am 27.3 WNW 6 8 1009.7 - 0.6 - - - - - - -
27/03:00am 27.1 NW 2 3 1010.0 - 0.6 Recent precip. - - - - - -
27/02:30am 28.2 WNW 6 9 1010.3 - 0.0 - - - - - - -
27/02:00am 28.4 WNW 5 9 1010.5 - 0.0 - - - - - - -
27/01:30am 28.5 WNW 5 8 1010.9 - 0.0 - - - - - - -
27/01:00am 28.4 WNW 5 10 1011.1 - 0.0 - - - - - - -
27/12:30am 28.4 WNW 5 8 1011.0 - 0.0 - - - - - - -
27/12:00am 28.4 WNW 4 7 1011.2 - 0.0 - - - - - - -
 
Date/Time
CST
Temp
°C
Wind Pressure Rain since
9am
mm
Weather Cloud Vis
km
Sea
Height
m
Swell
Dir  Spd
kts
Gust
kts
hPa Trend Height
m
Period
s
Dir
26/11:30pm 28.5 WNW 5 10 1011.3 - 0.0 - - - - - - -
26/11:00pm 28.7 WNW 4 8 1011.2 - 0.0 - - - - - - -
26/10:30pm 28.8 WNW 6 10 1011.2 - 0.0 - - - - - - -
26/10:00pm 28.8 WNW 6 10 1010.9 - 0.0 - - - - - - -
26/09:30pm 28.8 NW 5 9 1011.0 - 0.0 - - - - - - -
26/09:00pm 28.9 NW 5 9 1010.4 - 0.0 - - - - - - -
26/08:30pm 28.8 NW 5 7 1009.9 - 0.0 - - - - - - -
26/08:00pm 29.0 NW 5 9 1009.8 - 0.0 - - - - - - -
26/07:30pm 29.1 NW 6 13 1009.4 - 0.0 - - - - - - -
26/07:00pm 29.2 NW 6 10 1008.9 - 0.0 - - - - - - -
26/06:30pm 29.5 NW 7 11 1008.5 - 0.0 - - - - - - -
26/06:00pm 30.1 NW 7 11 1008.1 - 0.0 - - - - - - -
26/05:30pm 30.7 NW 6 11 1007.6 - 0.0 - - - - - - -
26/05:00pm 30.8 NNW 9 13 1007.2 - 0.0 - - - - - - -
26/04:30pm 31.7 NW 7 13 1007.1 - 0.0 - - - - - - -
26/04:00pm 31.6 NW 6 11 1007.1 - 0.0 - - - - - - -
26/03:30pm 31.5 NNW 7 13 1007.1 - 0.0 - - - - - - -
26/03:00pm 31.5 NNW 6 12 1007.2 - 0.0 - - - - - - -
26/02:30pm 31.6 NNW 7 12 1007.9 - 0.0 - - - - - - -
26/02:00pm 31.6 NNW 7 13 1008.2 - 0.0 - - - - - - -
26/01:30pm 31.6 NNW 6 11 1008.4 - 0.0 - - - - - - -
26/01:00pm 31.4 NNW 7 11 1008.9 - 0.0 - - - - - - -
26/12:30pm 31.9 NNW 5 10 1009.5 - 0.0 - - - - - - -
26/12:00pm 31.4 NW 6 10 1010.1 - 0.0 - - - - - - -
26/11:30am 31.4 NNW 5 10 1010.5 - 0.0 - - - - - - -
26/11:00am 30.7 NNW 7 11 1010.6 - 0.0 - - - - - - -
26/10:30am 30.7 NW 6 10 1010.7 - 0.0 - - - - - - -
26/10:00am 30.5 NW 5 10 1010.9 - 0.0 - - - - - - -
26/09:30am 30.5 NNW 5 10 1010.9 - 0.0 - - - - - - -
26/09:00am 30.4 NW 5 8 1010.7 - 0.0 - - - - - - -
26/08:30am 29.7 WNW 3 5 1010.2 - 0.0 - - - - - - -
26/08:00am 28.6 WNW 3 4 1009.9 - 0.0 - - - - - - -
26/07:30am 28.8 WNW 5 8 1009.6 - 0.0 - - - - - - -
26/07:00am 27.7 NW 2 4 1009.4 - 0.0 - - - - - - -
26/06:30am 27.5 NW 2 6 1009.2 - 0.0 - - - - - - -
26/06:00am 27.7 NW 2 5 1008.9 - 0.0 - - - - - - -
26/05:30am 27.9 NNW 3 5 1008.6 - 0.0 - - - - - - -
26/05:00am 27.9 NW 3 7 1008.5 - 0.0 - - - - - - -
26/04:30am 27.6 NW 2 4 1008.3 - 0.0 - - - - - - -
26/04:00am 27.4 NW 2 5 1008.1 - 0.0 - - - - - - -
26/03:30am 27.6 NW 3 5 1008.2 - 0.0 - - - - - - -
26/03:00am 27.4 NW 2 3 1008.5 - 0.0 - - - - - - -
26/02:30am 27.2 NNW 2 4 1008.5 - 0.0 - - - - - - -
26/02:00am 27.1 NNW 2 4 1009.0 - 0.0 - - - - - - -
26/01:30am 27.5 NW 3 5 1009.3 - 0.0 - - - - - - -
26/01:00am 27.7 WNW 5 8 1009.6 - 0.0 - - - - - - -
26/12:30am 27.9 NW 6 13 1009.9 - 0.0 - - - - - - -
26/12:00am 28.1 NNW 2 4 1010.0 - 0.0 - - - - - - -
 
Date/Time
CST
Temp
°C
Wind Pressure Rain since
9am
mm
Weather Cloud Vis
km
Sea
Height
m
Swell
Dir  Spd
kts
Gust
kts
hPa Trend Height
m
Period
s
Dir
25/11:30pm 28.0 NNW 2 4 1010.0 - 0.0 - - - - - - -
25/11:00pm 27.9 NNW 2 3 1010.1 - 0.0 - - - - - - -
25/10:30pm 28.1 N 1 3 1010.0 - 0.0 - - - - - - -
25/10:00pm 28.2 NW 2 3 1009.8 - 0.0 - - - - - - -
25/09:30pm 28.3 NW 2 3 1009.5 - 0.0 - - - - - - -

Other Formats:

Comma delimited format used in spreadsheet applications
http://www.bom.gov.au/fwo/IDD60701/IDD60701.94139.axf

JavaScript Object Notation format (JSON) in row-major order
http://www.bom.gov.au/fwo/IDD60701/IDD60701.94139.json